Winfield, Canada
Current Conditions -  °F | °C
As of 10:00 AM on Thursday 29 Jan 2015 (Local Time) from CWSE Reporting Station
Moderate Fog Moderate Fog  
Wind Chill: 24°   Ceiling: 1000
Heat Index: 24°   Visibility: 0.75mi
Dew Point: 23°   Wind: 3mph
Humidity: 96%   Direction: 150°SSE
Pressure: 30.21"   Gusts: NA
Location:  52.97°N, 114.43°W
Report Text: CWSE 291700Z 15003KT 3/4SM FG OVC010 M04/M05 A3021 RMK SLP282 FROIN LAST OBS/NEXT 292000 UTC T10451051 WSI/SWOB
Loading
Personal Weather Stations






























Interactive Weather Map New forecast layout! Learn more

10-Day Weather Forecast

Advertisements
Track Severe Weather on mobile